Time;durP1;ratioP1;P1;durP2;ratioP2;P2;SDS_P1;SDS_P2;PMS_P1;PMS_P2;Temp;Humidity;BMP_temperature;BMP_pressure;BME280_temperature;BME280_humidity;BME280_pressure;Samples;Min_cycle;Max_cycle;Signal;HPM_P1;HPM_P2
2023/07/26 00:01:58;;;;;;;2.17;1.93;;;13.20;99.90;12.70;99177;;;;547595;258;24154;-84
2023/07/26 00:04:25;;;;;;;5.40;2.37;;;13.20;99.90;12.70;99170;;;;558630;253;24117;-85
2023/07/26 00:06:53;;;;;;;2.20;1.77;;;13.30;99.90;12.70;99168;;;;547645;255;24149;-84
2023/07/26 00:09:24;;;;;;;2.87;2.10;;;13.20;99.90;12.70;99172;;;;558269;253;24132;-85
2023/07/26 00:11:49;;;;;;;3.23;1.90;;;13.30;99.90;12.70;99178;;;;568432;252;24115;-85
2023/07/26 00:14:17;;;;;;;3.97;1.70;;;13.30;99.90;12.80;99162;;;;547388;258;24163;-84
2023/07/26 00:16:45;;;;;;;3.10;1.80;;;13.30;99.90;12.80;99167;;;;558493;253;24159;-83
2023/07/26 00:19:13;;;;;;;4.13;2.20;;;13.40;99.90;12.90;99163;;;;547378;255;24180;-85
2023/07/26 00:21:41;;;;;;;3.63;2.17;;;13.40;99.90;12.90;99157;;;;559577;252;24154;-85
2023/07/26 00:24:09;;;;;;;6.10;2.20;;;13.50;99.90;12.90;99171;;;;548459;254;24177;-85
2023/07/26 00:26:37;;;;;;;9.97;2.13;;;13.50;99.90;13.00;99171;;;;557013;253;24094;-85
2023/07/26 00:29:05;;;;;;;3.40;2.20;;;13.50;99.90;13.00;99171;;;;548215;258;24152;-84
2023/07/26 00:31:33;;;;;;;5.13;2.60;;;13.50;99.90;13.00;99170;;;;558726;253;24151;-86
2023/07/26 00:34:01;;;;;;;4.53;2.00;;;13.50;99.90;13.00;99165;;;;548293;258;24172;-85
2023/07/26 00:36:29;;;;;;;10.67;2.30;;;13.50;99.90;13.10;99169;;;;559007;252;24124;-84
2023/07/26 00:38:57;;;;;;;8.67;1.97;;;13.60;99.90;13.10;99174;;;;560978;252;24154;-84
2023/07/26 00:41:25;;;;;;;6.87;2.03;;;13.60;99.90;13.10;99177;;;;548166;258;24137;-84
2023/07/26 00:43:53;;;;;;;4.50;2.73;;;13.60;99.90;13.10;99179;;;;567041;248;24156;-84
2023/07/26 00:46:25;;;;;;;3.13;1.83;;;13.60;99.90;13.10;99180;;;;547694;255;24180;-82
2023/07/26 00:48:49;;;;;;;2.73;2.10;;;13.60;99.90;13.10;99173;;;;566963;248;24123;-82
2023/07/26 00:51:20;;;;;;;3.57;2.77;;;13.60;99.90;13.10;99177;;;;547990;258;24134;-83
2023/07/26 00:53:44;;;;;;;5.60;2.60;;;13.60;99.90;13.00;99179;;;;566585;248;24229;-82
2023/07/26 00:56:12;;;;;;;4.63;2.40;;;13.60;99.90;13.00;99174;;;;547432;258;24180;-83
2023/07/26 00:58:40;;;;;;;3.63;2.30;;;13.60;99.90;13.00;99176;;;;566409;250;24109;-83
2023/07/26 01:01:08;;;;;;;2.47;2.27;;;13.50;99.90;13.00;99167;;;;555080;258;24138;-82
2023/07/26 01:03:36;;;;;;;4.87;2.50;;;13.50;99.90;12.90;99174;;;;558310;253;24112;-84
2023/07/26 01:06:07;;;;;;;6.23;2.43;;;13.50;99.90;12.90;99175;;;;547262;258;24173;-85
2023/07/26 01:08:47;;;;;;;4.60;2.07;;;13.50;99.90;12.90;99177;;;;558063;253;24145;-84
2023/07/26 01:11:27;;;;;;;3.07;2.03;;;13.40;99.90;12.90;99169;;;;559527;252;24134;-83
2023/07/26 01:13:57;;;;;;;3.97;1.93;;;13.40;99.90;12.80;99164;;;;555085;258;24157;-84
2023/07/26 01:16:25;;;;;;;3.33;1.93;;;13.40;99.90;12.90;99177;;;;537819;261;24176;-83
2023/07/26 01:18:54;;;;;;;7.23;3.10;;;13.40;99.90;12.90;99168;;;;561976;253;40166;-84
2023/07/26 01:21:21;;;;;;;6.90;3.85;;;13.40;99.90;12.90;99168;;;;542836;258;35611;-84
2023/07/26 01:23:49;;;;;;;7.60;2.37;;;13.40;99.90;12.90;99175;;;;558463;253;24198;-84
2023/07/26 01:26:17;;;;;;;7.83;3.20;;;13.40;99.90;12.90;99179;;;;547603;255;24147;-83
2023/07/26 01:28:45;;;;;;;4.47;3.03;;;13.50;99.90;13.00;99179;;;;558476;253;24118;-82
2023/07/26 01:31:16;;;;;;;6.90;2.53;;;13.50;99.90;13.00;99183;;;;547591;256;24134;-82
2023/07/26 01:33:41;;;;;;;4.80;2.50;;;13.50;99.90;13.00;99179;;;;568006;248;24212;-84
2023/07/26 01:36:09;;;;;;;2.77;2.57;;;13.50;99.90;13.10;99184;;;;556529;251;24130;-83
2023/07/26 01:38:37;;;;;;;3.13;1.87;;;13.50;99.90;13.10;99185;;;;559204;252;24149;-84
2023/07/26 01:41:05;;;;;;;9.37;2.23;;;13.60;99.90;13.10;99174;;;;556187;254;24164;-84
2023/07/26 01:43:33;;;;;;;5.03;1.97;;;13.50;99.90;13.10;99180;;;;567268;248;24146;-83
2023/07/26 01:46:01;;;;;;;5.57;3.03;;;13.60;99.90;13.10;99175;;;;548260;258;24176;-82
2023/07/26 01:48:29;;;;;;;2.87;1.87;;;13.60;99.90;13.20;99176;;;;559002;253;24156;-83
2023/07/26 01:50:57;;;;;;;4.00;2.37;;;13.60;99.90;13.20;99182;;;;547674;257;24178;-84
2023/07/26 01:53:25;;;;;;;3.87;1.93;;;13.60;99.90;13.10;99184;;;;558346;253;24164;-81
2023/07/26 01:55:54;;;;;;;4.73;2.00;;;13.60;99.90;13.10;99183;;;;547677;258;24170;-80
2023/07/26 01:58:22;;;;;;;3.03;2.43;;;13.60;99.90;13.10;99177;;;;558564;253;24139;-83
2023/07/26 02:00:50;;;;;;;6.53;3.00;;;13.60;99.90;13.10;99182;;;;542926;258;44909;-83
2023/07/26 02:03:17;;;;;;;8.40;2.90;;;13.60;99.90;13.10;99186;;;;558404;253;24161;-83
2023/07/26 02:05:45;;;;;;;2.73;2.00;;;13.60;99.90;13.10;99181;;;;547403;258;24149;-83
2023/07/26 02:08:16;;;;;;;1.90;1.63;;;13.60;99.90;13.10;99180;;;;558149;253;24141;-83
2023/07/26 02:10:45;;;;;;;4.90;2.00;;;13.60;99.90;13.20;99184;;;;546969;258;24232;-83
2023/07/26 02:13:10;;;;;;;2.23;1.70;;;13.60;99.90;13.20;99178;;;;566957;248;24126;-83
2023/07/26 02:15:38;;;;;;;3.77;2.13;;;13.60;99.90;13.20;99177;;;;547378;258;24178;-84
2023/07/26 02:18:06;;;;;;;5.97;2.57;;;13.60;99.90;13.10;99181;;;;558431;253;24165;-83
2023/07/26 02:20:38;;;;;;;4.93;2.40;;;13.60;99.90;13.10;99187;;;;554819;256;24167;-84
2023/07/26 02:23:02;;;;;;;3.20;2.03;;;13.60;99.90;13.10;99178;;;;558208;253;24122;-84
2023/07/26 02:25:30;;;;;;;5.63;2.17;;;13.60;99.90;13.10;99183;;;;547723;258;24174;-84
2023/07/26 02:27:58;;;;;;;3.17;2.27;;;13.50;99.90;13.10;99184;;;;566765;252;25194;-85
2023/07/26 02:30:27;;;;;;;2.60;2.40;;;13.50;99.90;13.00;99182;;;;555557;255;24197;-85
2023/07/26 02:32:55;;;;;;;5.20;2.03;;;13.50;99.90;13.00;99186;;;;558450;253;24168;-83
2023/07/26 02:35:23;;;;;;;2.90;1.60;;;13.50;99.90;13.00;99182;;;;547573;255;24169;-83
2023/07/26 02:37:51;;;;;;;2.57;1.90;;;13.50;99.90;13.00;99179;;;;558471;253;24171;-84
2023/07/26 02:40:19;;;;;;;2.47;2.07;;;13.40;99.90;12.90;99191;;;;547554;258;24201;-84
2023/07/26 02:42:48;;;;;;;3.07;2.17;;;13.40;99.90;12.90;99187;;;;558424;253;24123;-84
2023/07/26 02:45:16;;;;;;;7.60;1.80;;;13.40;99.90;12.90;99192;;;;550282;254;24160;-83
2023/07/26 02:47:44;;;;;;;5.13;2.23;;;13.40;99.90;12.90;99194;;;;560450;253;24115;-82
2023/07/26 02:50:11;;;;;;;3.63;1.90;;;13.40;99.90;12.90;99193;;;;548726;257;24117;-81
2023/07/26 02:52:39;;;;;;;2.33;2.10;;;13.40;99.90;12.80;99197;;;;559798;253;24158;-81
2023/07/26 02:55:07;;;;;;;4.20;2.33;;;13.30;99.90;12.80;99197;;;;547909;258;24152;-82
2023/07/26 02:57:35;;;;;;;2.83;1.60;;;13.30;99.90;12.80;99200;;;;566947;249;24121;-82
2023/07/26 03:00:03;;;;;;;4.63;2.10;;;13.30;99.90;12.80;99214;;;;548069;258;24126;-82
2023/07/26 03:02:32;;;;;;;3.67;2.30;;;13.30;99.90;12.80;99208;;;;566925;252;24167;-81
2023/07/26 03:05:00;;;;;;;3.40;2.33;;;13.30;99.90;12.80;99209;;;;547799;258;24139;-82
2023/07/26 03:07:28;;;;;;;4.83;2.37;;;13.30;99.90;12.80;99213;;;;558747;253;24341;-82
2023/07/26 03:09:56;;;;;;;6.73;2.10;;;13.30;99.90;12.80;99208;;;;547551;257;24185;-81
2023/07/26 03:12:24;;;;;;;6.00;2.57;;;13.30;99.90;12.80;99217;;;;558484;253;24111;-81
2023/07/26 03:14:53;;;;;;;3.60;2.10;;;13.30;99.90;12.80;99214;;;;547420;255;24135;-81
2023/07/26 03:17:21;;;;;;;7.20;1.77;;;13.30;99.90;12.90;99207;;;;558468;253;24096;-81
2023/07/26 03:19:49;;;;;;;4.13;1.97;;;13.30;99.90;12.90;99207;;;;547333;258;24135;-82
2023/07/26 03:22:17;;;;;;;6.07;2.67;;;13.30;99.90;12.90;99214;;;;558447;253;24151;-82
2023/07/26 03:24:45;;;;;;;7.47;2.00;;;13.40;99.90;12.90;99211;;;;547605;258;24136;-82
2023/07/26 03:27:13;;;;;;;5.30;2.60;;;13.40;99.90;12.90;99219;;;;558308;253;24221;-82
2023/07/26 03:29:41;;;;;;;3.67;2.07;;;13.40;99.90;13.00;99221;;;;547516;258;24181;-81
2023/07/26 03:32:09;;;;;;;3.27;2.27;;;13.40;99.90;13.10;99225;;;;558372;253;24108;-82
2023/07/26 03:34:39;;;;;;;3.63;2.20;;;13.60;99.90;13.20;99220;;;;547609;255;24182;-82
2023/07/26 03:37:10;;;;;;;3.47;2.13;;;13.70;99.90;13.20;99224;;;;558388;253;24127;-81
2023/07/26 03:39:36;;;;;;;7.53;2.80;;;13.70;99.90;13.30;99228;;;;533825;262;35730;-82
2023/07/26 03:42:04;;;;;;;9.27;2.90;;;13.70;99.90;13.40;99231;;;;558465;253;24123;-84
2023/07/26 03:44:32;;;;;;;4.93;2.27;;;13.80;99.90;13.50;99230;;;;547868;258;24170;-84
2023/07/26 03:47:00;;;;;;;1.90;1.70;;;13.90;99.90;13.80;99238;;;;558548;253;24154;-84
2023/07/26 03:49:28;;;;;;;4.30;2.00;;;14.50;99.90;14.10;99241;;;;548087;255;24190;-83
2023/07/26 03:51:56;;;;;;;2.50;1.97;;;14.50;99.90;14.30;99234;;;;558646;248;24132;-84
2023/07/26 03:54:24;;;;;;;2.80;1.90;;;14.60;99.90;14.20;99240;;;;547602;256;24204;-84
2023/07/26 03:56:52;;;;;;;5.73;2.07;;;14.70;99.90;14.20;99246;;;;559633;252;25186;-81
2023/07/26 03:59:20;;;;;;;4.63;1.60;;;14.60;99.90;14.20;99242;;;;548315;257;24183;-81
2023/07/26 04:01:48;;;;;;;2.83;1.70;;;14.60;99.90;14.20;99246;;;;567122;252;24232;-81
2023/07/26 04:04:16;;;;;;;5.57;1.90;;;14.60;99.90;14.30;99239;;;;548154;255;24151;-82
2023/07/26 04:06:44;;;;;;;3.20;1.83;;;14.70;99.90;14.30;99250;;;;558706;253;24107;-83
2023/07/26 04:09:12;;;;;;;2.03;1.87;;;14.70;99.90;14.40;99251;;;;555755;255;24148;-84
2023/07/26 04:11:40;;;;;;;4.70;2.13;;;14.80;99.90;14.50;99256;;;;558777;253;24150;-84
2023/07/26 04:14:08;;;;;;;5.67;2.20;;;14.80;99.90;14.50;99258;;;;547529;258;24180;-84
2023/07/26 04:16:36;;;;;;;3.40;2.23;;;14.90;99.90;14.60;99256;;;;558458;252;24162;-84
2023/07/26 04:19:04;;;;;;;3.87;2.00;;;15.00;99.90;14.70;99262;;;;547828;258;24327;-83
2023/07/26 04:21:32;;;;;;;6.10;2.47;;;15.10;99.90;14.90;99268;;;;558574;253;24119;-83
2023/07/26 04:24:00;;;;;;;6.37;2.50;;;15.30;99.90;15.10;99270;;;;548008;255;24150;-84
2023/07/26 04:26:29;;;;;;;4.07;2.00;;;15.80;99.90;15.50;99269;;;;558755;253;24178;-83
2023/07/26 04:28:56;;;;;;;2.03;1.87;;;15.80;99.90;15.80;99271;;;;547895;258;24228;-84
2023/07/26 04:31:24;;;;;;;5.90;2.10;;;16.20;99.90;16.10;99275;;;;558561;253;24135;-83
2023/07/26 04:33:52;;;;;;;4.30;1.93;;;16.50;99.90;16.30;99274;;;;547664;255;24157;-84
2023/07/26 04:36:21;;;;;;;4.20;1.80;;;16.90;99.90;16.50;99282;;;;558568;253;24123;-85
2023/07/26 04:38:50;;;;;;;4.77;2.10;;;17.20;99.90;16.70;99273;;;;547588;255;24132;-82
2023/07/26 04:41:18;;;;;;;7.20;1.87;;;17.10;99.90;17.20;99278;;;;566767;252;24124;-83
2023/07/26 04:43:45;;;;;;;1.57;1.47;;;17.50;99.90;17.80;99276;;;;538512;259;24219;-83
2023/07/26 04:46:13;;;;;;;6.43;1.80;;;18.10;99.90;19.20;99273;;;;558537;253;24133;-84
2023/07/26 04:48:46;;;;;;;2.27;1.60;;;20.90;99.90;20.50;99277;;;;547510;258;23159;-84
2023/07/26 04:51:14;;;;;;;2.17;1.53;;;22.40;99.90;21.90;99293;;;;566516;253;25275;-85
2023/07/26 04:53:39;;;;;;;3.13;1.90;;;22.30;99.90;23.60;99292;;;;560579;252;24207;-84
2023/07/26 04:56:07;;;;;;;2.93;1.90;;;24.20;99.90;25.20;99300;;;;547535;258;23161;-85
2023/07/26 04:58:35;;;;;;;3.50;1.70;;;25.70;99.90;26.40;99294;;;;558941;253;24111;-83
2023/07/26 05:01:03;;;;;;;5.17;1.50;;;28.40;99.00;27.60;99309;;;;548117;258;23177;-84
2023/07/26 05:03:32;;;;;;;3.15;1.45;;;29.50;93.10;28.70;99314;;;;558883;253;23116;-84
2023/07/26 05:06:03;;;;;;;3.95;1.37;;;29.40;93.10;28.60;99307;;;;547533;256;23280;-84
2023/07/26 05:08:28;;;;;;;5.18;1.65;;;29.60;90.00;27.80;99319;;;;559664;252;23148;-84
2023/07/26 05:10:56;;;;;;;3.75;1.35;;;28.80;88.80;26.80;99300;;;;548635;257;24129;-81
2023/07/26 05:13:24;;;;;;;1.73;1.42;;;26.90;90.80;25.90;99317;;;;559188;253;23140;-83
2023/07/26 05:15:53;;;;;;;3.87;1.77;;;26.00;91.90;25.10;99319;;;;548061;257;23192;-84
2023/07/26 05:18:21;;;;;;;2.53;1.20;;;25.90;91.80;24.90;99307;;;;558668;253;23121;-83
2023/07/26 05:20:53;;;;;;;5.17;1.40;;;25.60;93.50;25.60;99323;;;;548097;258;24206;-84
2023/07/26 05:23:17;;;;;;;2.57;1.47;;;26.00;93.20;26.40;99324;;;;558558;253;23153;-84
2023/07/26 05:25:45;;;;;;;3.17;1.47;;;27.40;91.80;27.00;99330;;;;547892;258;24200;-83
2023/07/26 05:28:13;;;;;;;5.23;1.20;;;27.30;91.80;26.80;99338;;;;567231;252;23136;-85
2023/07/26 05:30:44;;;;;;;1.80;1.30;;;27.30;90.80;25.90;99338;;;;548075;258;23178;-84
2023/07/26 05:33:09;;;;;;;3.07;1.30;;;26.60;90.50;24.70;99334;;;;567208;253;24168;-84
2023/07/26 05:35:37;;;;;;;3.77;1.43;;;25.50;91.50;23.90;99345;;;;548134;258;24142;-85
2023/07/26 05:38:05;;;;;;;2.53;1.07;;;24.60;93.00;23.00;99344;;;;567500;252;23137;-84
2023/07/26 05:40:36;;;;;;;4.53;1.17;;;23.80;93.70;22.40;99350;;;;548110;255;24138;-85
2023/07/26 05:43:01;;;;;;;1.87;1.00;;;23.00;95.10;21.70;99341;;;;558382;253;23235;-85
2023/07/26 05:45:29;;;;;;;1.53;0.90;;;22.30;95.80;21.10;99348;;;;560563;252;24101;-83
2023/07/26 05:47:59;;;;;;;2.30;1.10;;;21.70;97.40;20.60;99352;;;;547562;258;24139;-84
2023/07/26 05:50:24;;;;;;;4.03;1.27;;;21.20;99.30;20.00;99351;;;;566546;253;24111;-84
2023/07/26 05:52:52;;;;;;;1.37;1.00;;;20.60;99.90;19.60;99353;;;;547619;258;24150;-83
2023/07/26 05:55:20;;;;;;;1.73;1.47;;;20.20;99.90;19.50;99351;;;;556698;253;24195;-83
2023/07/26 05:57:51;;;;;;;2.63;1.20;;;19.90;99.90;19.60;99350;;;;547472;255;23185;-84
2023/07/26 06:00:18;;;;;;;3.23;0.97;;;19.90;99.90;19.50;99353;;;;566395;253;23150;-85
2023/07/26 06:02:45;;;;;;;4.10;1.40;;;19.70;99.90;19.30;99345;;;;547380;258;24151;-82
2023/07/26 06:05:13;;;;;;;1.20;1.10;;;19.70;99.90;19.20;99353;;;;558350;253;24313;-84
2023/07/26 06:07:41;;;;;;;1.13;0.90;;;19.50;99.90;18.90;99356;;;;547498;258;23181;-83
2023/07/26 06:10:13;;;;;;;1.53;1.03;;;19.30;99.90;18.70;99352;;;;558474;253;23123;-83
2023/07/26 06:12:37;;;;;;;2.00;1.60;;;19.10;99.90;18.60;99352;;;;560054;252;24145;-83
2023/07/26 06:15:05;;;;;;;6.90;1.30;;;19.00;99.90;18.60;99353;;;;547419;255;24144;-83
2023/07/26 06:17:34;;;;;;;2.00;1.07;;;18.90;99.90;18.50;99351;;;;558140;253;23141;-82
2023/07/26 06:20:06;;;;;;;1.60;1.30;;;18.90;99.90;18.50;99356;;;;548983;254;24126;-82
2023/07/26 06:22:34;;;;;;;1.63;1.23;;;18.90;99.90;18.50;99360;;;;558808;253;24136;-82
2023/07/26 06:24:59;;;;;;;2.67;1.10;;;18.90;99.90;18.50;99356;;;;560703;252;24153;-83
2023/07/26 06:27:33;;;;;;;2.57;1.17;;;18.90;99.90;18.40;99359;;;;548276;258;23146;-82
2023/07/26 06:29:57;;;;;;;0.80;0.80;;;18.80;99.90;18.30;99369;;;;558851;252;24105;-82
2023/07/26 06:32:28;;;;;;;0.90;0.90;;;18.70;99.90;18.30;99363;;;;556122;250;24117;-83
2023/07/26 06:34:53;;;;;;;1.83;1.60;;;18.70;99.90;18.30;99372;;;;559167;253;23153;-84
2023/07/26 06:37:21;;;;;;;2.53;1.40;;;18.70;99.90;18.20;99380;;;;548817;255;24194;-83
2023/07/26 06:39:49;;;;;;;1.93;1.70;;;18.60;99.90;18.10;99372;;;;559615;253;24117;-83
2023/07/26 06:42:16;;;;;;;6.53;1.87;;;18.60;99.90;18.00;99379;;;;570247;252;24130;-84
2023/07/26 06:44:44;;;;;;;6.37;1.60;;;18.40;99.90;18.00;99379;;;;548961;258;24134;-82
2023/07/26 06:47:12;;;;;;;2.67;1.77;;;18.40;99.90;18.10;99383;;;;558658;252;24214;-83
2023/07/26 06:49:40;;;;;;;3.57;1.60;;;18.50;99.90;18.10;99382;;;;547828;258;23157;-83
2023/07/26 06:52:08;;;;;;;2.40;1.37;;;18.50;99.90;18.20;99392;;;;558713;253;24257;-82
2023/07/26 06:54:39;;;;;;;1.10;1.10;;;18.60;99.90;18.40;99391;;;;547651;255;24170;-84
2023/07/26 06:57:07;;;;;;;3.07;1.33;;;19.00;99.90;18.60;99397;;;;558244;253;24160;-83
2023/07/26 06:59:36;;;;;;;1.40;1.30;;;19.40;99.90;19.10;99394;;;;560083;252;24176;-82
2023/07/26 07:02:07;;;;;;;1.87;1.60;;;19.30;99.90;19.60;99409;;;;555372;251;24147;-82
2023/07/26 07:04:35;;;;;;;1.30;1.20;;;19.90;99.90;20.40;99399;;;;558208;253;23205;-82
2023/07/26 07:07:03;;;;;;;3.83;1.47;;;20.60;99.90;21.20;99402;;;;547481;258;24157;-83
2023/07/26 07:09:31;;;;;;;3.10;1.30;;;21.40;99.90;22.20;99410;;;;558350;253;24125;-85
2023/07/26 07:11:59;;;;;;;8.37;1.77;;;22.30;99.90;23.00;99416;;;;548389;258;24173;-83
2023/07/26 07:14:27;;;;;;;3.60;1.43;;;23.20;99.90;23.30;99420;;;;559615;253;24106;-85
2023/07/26 07:16:54;;;;;;;2.87;1.50;;;23.70;99.90;23.50;99430;;;;548638;258;24144;-84
2023/07/26 07:19:22;;;;;;;1.83;1.73;;;23.90;99.90;23.50;99425;;;;559439;253;23164;-81
2023/07/26 07:21:51;;;;;;;2.70;1.60;;;23.90;99.90;23.20;99433;;;;548658;258;24228;-83
2023/07/26 07:24:18;;;;;;;5.93;5.13;;;23.70;99.90;23.10;99430;;;;559348;253;26324;-84
2023/07/26 07:26:46;;;;;;;1.87;1.60;;;23.50;99.90;23.10;99420;;;;548889;258;23142;-84
2023/07/26 07:29:14;;;;;;;3.50;1.50;;;23.50;99.90;23.30;99429;;;;559571;251;24235;-84
2023/07/26 07:31:42;;;;;;;3.10;2.03;;;23.70;99.90;23.90;99436;;;;549836;257;25251;-83
2023/07/26 07:34:10;;;;;;;4.63;1.70;;;24.10;99.90;24.50;99439;;;;560317;253;23129;-83
2023/07/26 07:36:38;;;;;;;4.83;1.47;;;24.70;99.90;25.30;99440;;;;549263;255;23196;-83
2023/07/26 07:39:08;;;;;;;2.30;1.50;;;25.50;99.90;26.20;99445;;;;559842;253;23114;-84
2023/07/26 07:41:34;;;;;;;2.10;1.30;;;26.40;99.90;26.70;99446;;;;548628;258;24149;-85
2023/07/26 07:44:02;;;;;;;3.33;1.40;;;27.00;99.90;26.90;99439;;;;559764;252;23121;-84
2023/07/26 07:46:30;;;;;;;2.17;1.58;;;27.30;98.40;26.90;99444;;;;548640;255;23143;-83
2023/07/26 07:48:57;;;;;;;2.40;1.40;;;27.30;97.40;27.10;99429;;;;559846;253;23107;-84
2023/07/26 07:51:26;;;;;;;1.90;1.17;;;28.00;96.00;27.70;99437;;;;548292;258;23217;-83
2023/07/26 07:53:57;;;;;;;5.80;3.40;;;27.90;95.80;28.00;99440;;;;558526;253;23160;-84
2023/07/26 07:56:23;;;;;;;8.98;1.50;;;28.50;93.30;28.10;99450;;;;568988;252;23150;-84
2023/07/26 07:58:51;;;;;;;2.72;1.00;;;28.50;93.30;28.00;99441;;;;561067;252;23147;-83
2023/07/26 08:01:22;;;;;;;4.85;1.30;;;28.50;92.30;27.80;99450;;;;548110;258;23163;-84
2023/07/26 08:03:46;;;;;;;6.57;1.73;;;28.30;91.10;27.30;99446;;;;558847;253;23138;-83
2023/07/26 08:06:14;;;;;;;9.60;1.50;;;27.90;90.50;26.60;99451;;;;566803;252;24215;-83
2023/07/26 08:08:44;;;;;;;6.07;2.03;;;27.20;90.70;26.10;99449;;;;548627;258;23155;-83
2023/07/26 08:11:14;;;;;;;4.70;1.60;;;26.60;91.40;25.60;99449;;;;559249;253;23149;-82
2023/07/26 08:13:39;;;;;;;11.70;2.10;;;26.10;92.30;25.10;99456;;;;560888;252;24135;-84
2023/07/26 08:16:07;;;;;;;3.87;1.73;;;25.60;93.20;24.70;99453;;;;560523;252;23131;-84
2023/07/26 08:18:35;;;;;;;2.30;1.30;;;25.10;94.10;24.30;99458;;;;547737;258;23178;-84
2023/07/26 08:21:07;;;;;;;2.53;1.37;;;24.40;95.70;24.10;99456;;;;566745;248;24201;-84
2023/07/26 08:23:35;;;;;;;1.40;0.87;;;24.40;95.60;23.80;99445;;;;547081;257;24155;-84
2023/07/26 08:26:03;;;;;;;2.70;1.60;;;24.10;95.70;23.50;99455;;;;566332;253;23156;-82
2023/07/26 08:28:33;;;;;;;3.13;1.57;;;23.90;95.50;23.20;99457;;;;547612;258;23233;-83
2023/07/26 08:30:59;;;;;;;5.60;1.70;;;23.60;95.80;22.90;99464;;;;560701;253;23141;-83
2023/07/26 08:33:27;;;;;;;0.93;0.93;;;23.30;95.90;22.70;99453;;;;547376;255;24171;-83
2023/07/26 08:36:00;;;;;;;2.87;1.55;;;23.10;96.50;22.70;99450;;;;561794;252;35354;-83
2023/07/26 08:38:29;;;;;;;1.90;1.27;;;23.00;97.10;22.80;99448;;;;555260;253;24205;-84
2023/07/26 08:40:53;;;;;;;2.97;1.90;;;23.10;97.70;23.00;99449;;;;566517;249;23167;-83
2023/07/26 08:43:21;;;;;;;1.03;1.03;;;23.30;97.40;23.30;99445;;;;561314;252;23139;-82
2023/07/26 08:45:52;;;;;;;16.93;7.43;;;23.60;97.20;23.60;99454;;;;556178;255;23169;-83
2023/07/26 08:48:17;;;;;;;3.63;1.40;;;23.90;96.70;23.80;99457;;;;558702;253;24158;-84
2023/07/26 08:50:44;;;;;;;3.30;1.70;;;24.10;96.20;24.10;99458;;;;560797;252;23176;-83
2023/07/26 08:53:18;;;;;;;3.17;1.57;;;24.40;96.10;24.50;99453;;;;548222;258;24209;-83
2023/07/26 08:55:44;;;;;;;2.23;1.40;;;25.20;94.90;24.90;99454;;;;558993;253;23240;-84
2023/07/26 08:58:18;;;;;;;3.23;1.20;;;25.20;94.40;24.80;99458;;;;548208;258;23206;-83
2023/07/26 09:00:46;;;;;;;4.10;1.50;;;25.20;92.80;24.60;99457;;;;558969;253;24164;-83
2023/07/26 09:03:17;;;;;;;3.33;1.20;;;25.00;92.60;24.50;99450;;;;555562;258;23162;-82
2023/07/26 09:05:54;;;;;;;1.40;1.13;;;24.90;92.90;25.10;99453;;;;557936;253;24154;-85
2023/07/26 09:08:15;;;;;;;3.03;1.43;;;25.30;91.40;26.70;99452;;;;546648;258;23159;-84
2023/07/26 09:10:43;;;;;;;0.97;0.90;;;26.70;89.50;28.80;99454;;;;557693;253;23146;-84
2023/07/26 09:13:11;;;;;;;4.25;1.00;;;28.90;80.90;30.00;99455;;;;560393;252;23172;-84
2023/07/26 09:15:39;;;;;;;5.78;2.67;;;30.20;74.80;30.50;99466;;;;560489;252;23152;-83
2023/07/26 09:18:09;;;;;;;2.83;2.40;;;31.00;69.40;30.40;99463;;;;568709;251;23148;-84
2023/07/26 09:20:37;;;;;;;4.50;1.55;;;31.10;66.70;30.70;99460;;;;546955;258;23212;-84
2023/07/26 09:23:06;;;;;;;2.35;1.62;;;31.20;66.60;32.20;99468;;;;558237;253;23144;-84
2023/07/26 09:25:37;;;;;;;4.62;1.37;;;32.50;65.10;34.50;99471;;;;547129;254;23149;-85
2023/07/26 09:28:07;;;;;;;0.93;0.93;;;34.70;60.90;36.40;99471;;;;566657;248;23171;-85
2023/07/26 09:30:38;;;;;;;7.00;1.37;;;36.80;55.10;37.60;99470;;;;560309;252;23231;-84
2023/07/26 09:33:04;;;;;;;4.15;1.27;;;39.60;48.40;39.00;99478;;;;545664;258;23214;-85
2023/07/26 09:35:34;;;;;;;3.42;1.33;;;39.50;48.30;39.90;99467;;;;558435;253;23184;-84
2023/07/26 09:38:14;;;;;;;5.05;1.15;;;40.60;45.60;41.20;99474;;;;547353;258;23175;-85
2023/07/26 09:40:46;;;;;;;3.47;1.10;;;42.30;43.30;41.10;99479;;;;558471;253;23155;-85
2023/07/26 09:43:12;;;;;;;5.07;1.45;;;41.40;42.70;39.90;99479;;;;537716;261;23185;-85
2023/07/26 09:45:40;;;;;;;2.87;1.58;;;41.40;42.70;38.20;99489;;;;558498;253;23159;-84
2023/07/26 09:48:14;;;;;;;4.47;1.30;;;38.30;44.50;36.30;99491;;;;560575;251;23122;-84
2023/07/26 09:50:46;;;;;;;4.65;1.20;;;38.20;44.40;34.40;99508;;;;547826;258;23182;-83
2023/07/26 09:53:10;;;;;;;2.00;1.30;;;36.20;46.20;32.10;99515;;;;558278;252;23148;-84
2023/07/26 09:55:42;;;;;;;4.57;1.33;;;33.90;50.40;29.60;99525;;;;556933;253;23176;-84
2023/07/26 09:58:13;;;;;;;1.75;1.45;;;31.40;54.20;27.20;99528;;;;567597;249;23152;-85
2023/07/26 10:00:38;;;;;;;1.67;1.20;;;29.00;60.50;25.00;99528;;;;561244;252;23140;-83
2023/07/26 10:03:09;;;;;;;4.53;1.10;;;26.70;68.10;23.50;99535;;;;548273;258;23205;-83
2023/07/26 10:05:38;;;;;;;2.33;1.00;;;23.40;81.60;22.30;99549;;;;558835;252;24255;-84
2023/07/26 10:08:06;;;;;;;4.70;1.40;;;22.10;92.00;21.20;99542;;;;560526;252;24111;-84
2023/07/26 10:10:32;;;;;;;5.30;1.40;;;22.00;91.90;20.30;99545;;;;560717;252;24115;-84
2023/07/26 10:13:04;;;;;;;2.47;1.20;;;21.10;95.90;19.90;99544;;;;560822;252;24104;-85
2023/07/26 10:15:32;;;;;;;5.20;1.43;;;20.50;99.90;19.70;99557;;;;568824;252;24193;-84
2023/07/26 10:18:00;;;;;;;1.67;1.20;;;20.20;99.90;19.60;99557;;;;560313;252;24155;-84
2023/07/26 10:20:24;;;;;;;1.23;1.00;;;19.90;99.90;19.50;99556;;;;560602;252;24147;-83
2023/07/26 10:22:52;;;;;;;1.03;1.00;;;19.80;99.90;19.40;99557;;;;560684;252;24142;-84
2023/07/26 10:25:20;;;;;;;5.13;1.50;;;19.80;99.90;19.50;99563;;;;560881;252;23171;-84
2023/07/26 10:27:48;;;;;;;2.63;1.70;;;19.90;99.90;19.60;99563;;;;569347;250;23137;-85
2023/07/26 10:30:18;;;;;;;4.13;1.60;;;20.00;99.90;19.70;99565;;;;561284;252;24155;-85
2023/07/26 10:32:50;;;;;;;0.80;0.80;;;20.10;99.90;19.70;99562;;;;548203;258;24142;-86
2023/07/26 10:35:30;;;;;;;1.63;1.40;;;20.10;99.90;19.70;99556;;;;561885;253;23216;-85
2023/07/26 10:37:58;;;;;;;1.77;1.20;;;20.10;99.90;19.80;99561;;;;548500;258;23163;-85
2023/07/26 10:40:37;;;;;;;2.13;1.57;;;20.20;99.90;19.90;99557;;;;559273;253;23270;-85
2023/07/26 10:43:21;;;;;;;3.00;1.17;;;20.30;99.90;20.10;99554;;;;560961;252;23148;-84
2023/07/26 10:45:51;;;;;;;1.60;1.47;;;20.50;99.90;20.40;99556;;;;547881;258;23155;-85
2023/07/26 10:48:37;;;;;;;1.77;1.57;;;20.70;99.90;20.70;99557;;;;558480;253;24146;-85
2023/07/26 10:51:33;;;;;;;2.40;1.40;;;21.00;99.90;21.00;99562;;;;561048;252;24124;-83
2023/07/26 10:54:01;;;;;;;1.30;1.30;;;21.30;99.90;21.10;99567;;;;554191;258;24148;-84
2023/07/26 10:56:32;;;;;;;2.25;1.40;;;21.50;99.90;21.10;99563;;;;562153;253;35401;-85
2023/07/26 10:59:24;;;;;;;1.23;1.17;;;21.50;99.90;21.10;99565;;;;555751;251;23186;-85
2023/07/26 11:01:55;;;;;;;2.30;1.20;;;21.50;99.90;21.20;99557;;;;558808;253;24129;-86
2023/07/26 11:04:23;;;;;;;1.93;1.40;;;21.60;99.90;21.40;99556;;;;548186;257;24164;-85
2023/07/26 11:07:06;;;;;;;1.60;1.40;;;21.80;99.90;21.60;99571;;;;559887;251;24144;-84
2023/07/26 11:09:33;;;;;;;5.57;1.33;;;22.00;99.90;21.80;99572;;;;569956;252;24195;-84
2023/07/26 11:11:58;;;;;;;3.60;1.53;;;22.20;99.90;21.90;99568;;;;563634;252;23175;-84
2023/07/26 11:14:30;;;;;;;2.10;1.10;;;22.20;99.90;21.90;99567;;;;569470;252;24135;-83
2023/07/26 11:16:54;;;;;;;2.43;1.40;;;22.30;99.90;22.10;99572;;;;560611;252;24140;-84
2023/07/26 11:19:22;;;;;;;1.60;1.50;;;22.40;99.90;22.20;99575;;;;548314;258;24172;-84
2023/07/26 11:21:53;;;;;;;1.53;1.20;;;22.60;99.90;22.30;99565;;;;559018;253;23136;-83
2023/07/26 11:24:27;;;;;;;3.17;1.10;;;22.70;99.90;22.40;99566;;;;547549;257;24141;-85